sensor_id;sensor_type;location;lat;lon;timestamp;P1;durP1;ratioP1;P2;durP2;ratioP2
18999;SDS011;9633;50.980;13.850;2022-12-29T00:00:28;1.73;;;1.43;;
18999;SDS011;9633;50.980;13.850;2022-12-29T00:02:01;2.53;;;1.30;;
18999;SDS011;9633;50.980;13.850;2022-12-29T00:03:34;2.37;;;1.50;;
18999;SDS011;9633;50.980;13.850;2022-12-29T00:05:06;3.13;;;1.50;;
18999;SDS011;9633;50.980;13.850;2022-12-29T00:06:40;3.20;;;1.67;;
18999;SDS011;9633;50.980;13.850;2022-12-29T00:08:12;3.13;;;1.40;;
18999;SDS011;9633;50.980;13.850;2022-12-29T00:09:45;2.10;;;1.43;;
18999;SDS011;9633;50.980;13.850;2022-12-29T00:11:19;4.10;;;1.20;;
18999;SDS011;9633;50.980;13.850;2022-12-29T00:12:53;2.20;;;1.50;;
18999;SDS011;9633;50.980;13.850;2022-12-29T00:14:46;2.33;;;1.67;;
18999;SDS011;9633;50.980;13.850;2022-12-29T00:16:38;1.90;;;1.40;;
18999;SDS011;9633;50.980;13.850;2022-12-29T00:18:13;2.00;;;1.33;;
18999;SDS011;9633;50.980;13.850;2022-12-29T00:19:48;2.13;;;1.40;;
18999;SDS011;9633;50.980;13.850;2022-12-29T00:21:38;2.60;;;1.37;;
18999;SDS011;9633;50.980;13.850;2022-12-29T00:23:28;2.33;;;1.33;;
18999;SDS011;9633;50.980;13.850;2022-12-29T00:25:19;2.30;;;1.33;;
18999;SDS011;9633;50.980;13.850;2022-12-29T00:27:11;2.40;;;1.33;;
18999;SDS011;9633;50.980;13.850;2022-12-29T00:29:03;2.20;;;1.20;;
18999;SDS011;9633;50.980;13.850;2022-12-29T00:30:55;2.57;;;1.13;;
18999;SDS011;9633;50.980;13.850;2022-12-29T00:32:48;1.40;;;1.27;;
18999;SDS011;9633;50.980;13.850;2022-12-29T00:34:40;3.00;;;1.20;;
18999;SDS011;9633;50.980;13.850;2022-12-29T00:36:34;1.70;;;1.30;;
18999;SDS011;9633;50.980;13.850;2022-12-29T00:38:10;2.67;;;1.63;;
18999;SDS011;9633;50.980;13.850;2022-12-29T00:40:01;1.30;;;1.20;;
18999;SDS011;9633;50.980;13.850;2022-12-29T00:41:52;2.90;;;1.40;;
18999;SDS011;9633;50.980;13.850;2022-12-29T00:43:42;2.43;;;1.53;;
18999;SDS011;9633;50.980;13.850;2022-12-29T00:45:33;2.23;;;1.40;;
18999;SDS011;9633;50.980;13.850;2022-12-29T00:47:09;2.33;;;1.40;;
18999;SDS011;9633;50.980;13.850;2022-12-29T00:48:42;1.77;;;1.30;;
18999;SDS011;9633;50.980;13.850;2022-12-29T00:50:33;2.47;;;1.60;;
18999;SDS011;9633;50.980;13.850;2022-12-29T00:52:06;1.67;;;1.30;;
18999;SDS011;9633;50.980;13.850;2022-12-29T00:53:40;3.17;;;1.63;;
18999;SDS011;9633;50.980;13.850;2022-12-29T00:55:13;1.67;;;1.57;;
18999;SDS011;9633;50.980;13.850;2022-12-29T00:56:46;2.47;;;1.57;;
18999;SDS011;9633;50.980;13.850;2022-12-29T00:58:20;2.97;;;1.63;;
18999;SDS011;9633;50.980;13.850;2022-12-29T00:59:53;2.87;;;1.60;;
18999;SDS011;9633;50.980;13.850;2022-12-29T01:01:26;2.60;;;1.60;;
18999;SDS011;9633;50.980;13.850;2022-12-29T01:03:02;1.97;;;1.60;;
18999;SDS011;9633;50.980;13.850;2022-12-29T01:04:37;2.30;;;1.70;;
18999;SDS011;9633;50.980;13.850;2022-12-29T01:06:10;2.77;;;2.03;;
18999;SDS011;9633;50.980;13.850;2022-12-29T01:07:43;2.27;;;1.70;;
18999;SDS011;9633;50.980;13.850;2022-12-29T01:09:16;3.30;;;2.00;;
18999;SDS011;9633;50.980;13.850;2022-12-29T01:11:08;2.27;;;2.07;;
18999;SDS011;9633;50.980;13.850;2022-12-29T01:12:42;2.67;;;1.73;;
18999;SDS011;9633;50.980;13.850;2022-12-29T01:14:16;2.70;;;1.90;;
18999;SDS011;9633;50.980;13.850;2022-12-29T01:15:50;3.17;;;1.90;;
18999;SDS011;9633;50.980;13.850;2022-12-29T01:17:24;1.90;;;1.80;;
18999;SDS011;9633;50.980;13.850;2022-12-29T01:18:58;4.73;;;1.80;;
18999;SDS011;9633;50.980;13.850;2022-12-29T01:20:31;2.30;;;1.83;;
18999;SDS011;9633;50.980;13.850;2022-12-29T01:22:04;3.10;;;2.10;;
18999;SDS011;9633;50.980;13.850;2022-12-29T01:23:37;2.50;;;1.93;;
18999;SDS011;9633;50.980;13.850;2022-12-29T01:25:10;3.37;;;2.07;;
18999;SDS011;9633;50.980;13.850;2022-12-29T01:26:44;2.90;;;2.00;;
18999;SDS011;9633;50.980;13.850;2022-12-29T01:28:20;2.13;;;1.93;;
18999;SDS011;9633;50.980;13.850;2022-12-29T01:29:56;3.27;;;1.87;;
18999;SDS011;9633;50.980;13.850;2022-12-29T01:31:29;4.37;;;1.90;;
18999;SDS011;9633;50.980;13.850;2022-12-29T01:33:03;2.57;;;1.70;;
18999;SDS011;9633;50.980;13.850;2022-12-29T01:34:37;3.30;;;2.00;;
18999;SDS011;9633;50.980;13.850;2022-12-29T01:36:11;2.97;;;1.87;;
18999;SDS011;9633;50.980;13.850;2022-12-29T01:37:45;2.30;;;1.87;;
18999;SDS011;9633;50.980;13.850;2022-12-29T01:39:18;4.03;;;2.10;;
18999;SDS011;9633;50.980;13.850;2022-12-29T01:40:52;2.07;;;1.87;;
18999;SDS011;9633;50.980;13.850;2022-12-29T01:42:24;4.13;;;1.80;;
18999;SDS011;9633;50.980;13.850;2022-12-29T01:43:59;2.00;;;1.80;;
18999;SDS011;9633;50.980;13.850;2022-12-29T01:45:32;4.17;;;2.00;;
18999;SDS011;9633;50.980;13.850;2022-12-29T01:47:06;3.33;;;1.90;;
18999;SDS011;9633;50.980;13.850;2022-12-29T01:48:40;2.30;;;1.80;;
18999;SDS011;9633;50.980;13.850;2022-12-29T01:50:16;2.57;;;1.80;;
18999;SDS011;9633;50.980;13.850;2022-12-29T01:51:55;3.27;;;1.60;;
18999;SDS011;9633;50.980;13.850;2022-12-29T01:53:31;2.67;;;1.73;;
18999;SDS011;9633;50.980;13.850;2022-12-29T01:55:07;2.53;;;1.70;;
18999;SDS011;9633;50.980;13.850;2022-12-29T01:56:42;3.57;;;2.00;;
18999;SDS011;9633;50.980;13.850;2022-12-29T01:58:16;3.73;;;1.80;;
18999;SDS011;9633;50.980;13.850;2022-12-29T01:59:52;3.57;;;1.90;;
18999;SDS011;9633;50.980;13.850;2022-12-29T02:01:27;3.10;;;1.73;;
18999;SDS011;9633;50.980;13.850;2022-12-29T02:03:01;3.47;;;2.13;;
18999;SDS011;9633;50.980;13.850;2022-12-29T02:04:34;2.70;;;2.03;;
18999;SDS011;9633;50.980;13.850;2022-12-29T02:06:13;3.67;;;1.83;;
18999;SDS011;9633;50.980;13.850;2022-12-29T02:07:50;3.57;;;1.87;;
18999;SDS011;9633;50.980;13.850;2022-12-29T02:09:24;3.90;;;1.90;;
18999;SDS011;9633;50.980;13.850;2022-12-29T02:10:58;2.63;;;2.00;;
18999;SDS011;9633;50.980;13.850;2022-12-29T02:12:33;3.63;;;2.10;;
18999;SDS011;9633;50.980;13.850;2022-12-29T02:14:08;2.23;;;1.80;;
18999;SDS011;9633;50.980;13.850;2022-12-29T02:15:44;2.33;;;1.70;;
18999;SDS011;9633;50.980;13.850;2022-12-29T02:17:29;2.83;;;1.43;;
18999;SDS011;9633;50.980;13.850;2022-12-29T02:19:24;2.80;;;2.07;;
18999;SDS011;9633;50.980;13.850;2022-12-29T02:21:47;2.07;;;1.80;;
18999;SDS011;9633;50.980;13.850;2022-12-29T02:23:41;2.73;;;1.80;;
18999;SDS011;9633;50.980;13.850;2022-12-29T02:25:35;2.67;;;1.70;;
18999;SDS011;9633;50.980;13.850;2022-12-29T02:27:26;2.00;;;1.60;;
18999;SDS011;9633;50.980;13.850;2022-12-29T02:29:21;2.47;;;1.80;;
18999;SDS011;9633;50.980;13.850;2022-12-29T02:31:15;2.13;;;1.53;;
18999;SDS011;9633;50.980;13.850;2022-12-29T02:32:54;1.77;;;1.63;;
18999;SDS011;9633;50.980;13.850;2022-12-29T02:34:40;3.37;;;1.80;;
18999;SDS011;9633;50.980;13.850;2022-12-29T02:36:22;3.07;;;1.60;;
18999;SDS011;9633;50.980;13.850;2022-12-29T02:38:05;1.70;;;1.40;;
18999;SDS011;9633;50.980;13.850;2022-12-29T02:39:47;2.87;;;1.70;;
18999;SDS011;9633;50.980;13.850;2022-12-29T02:41:29;2.10;;;1.50;;
18999;SDS011;9633;50.980;13.850;2022-12-29T02:43:07;5.93;;;1.80;;
18999;SDS011;9633;50.980;13.850;2022-12-29T02:44:50;2.67;;;1.60;;
18999;SDS011;9633;50.980;13.850;2022-12-29T02:46:33;2.00;;;1.47;;
18999;SDS011;9633;50.980;13.850;2022-12-29T02:48:08;2.00;;;1.40;;
18999;SDS011;9633;50.980;13.850;2022-12-29T02:49:49;1.70;;;1.60;;
18999;SDS011;9633;50.980;13.850;2022-12-29T02:51:29;3.87;;;1.50;;
18999;SDS011;9633;50.980;13.850;2022-12-29T02:53:08;2.53;;;1.53;;
18999;SDS011;9633;50.980;13.850;2022-12-29T02:54:44;1.67;;;1.40;;
18999;SDS011;9633;50.980;13.850;2022-12-29T02:56:19;2.33;;;1.70;;
18999;SDS011;9633;50.980;13.850;2022-12-29T02:58:05;2.33;;;1.70;;
18999;SDS011;9633;50.980;13.850;2022-12-29T02:59:48;4.20;;;2.00;;
18999;SDS011;9633;50.980;13.850;2022-12-29T03:01:29;3.10;;;1.83;;
18999;SDS011;9633;50.980;13.850;2022-12-29T03:03:36;3.40;;;2.00;;
18999;SDS011;9633;50.980;13.850;2022-12-29T03:05:22;3.00;;;2.07;;
18999;SDS011;9633;50.980;13.850;2022-12-29T03:07:13;3.17;;;1.77;;
18999;SDS011;9633;50.980;13.850;2022-12-29T03:08:58;4.03;;;2.10;;
18999;SDS011;9633;50.980;13.850;2022-12-29T03:10:50;2.47;;;2.17;;
18999;SDS011;9633;50.980;13.850;2022-12-29T03:12:29;2.30;;;2.00;;
18999;SDS011;9633;50.980;13.850;2022-12-29T03:14:23;3.23;;;1.93;;
18999;SDS011;9633;50.980;13.850;2022-12-29T03:16:20;2.40;;;2.00;;
18999;SDS011;9633;50.980;13.850;2022-12-29T03:17:58;2.70;;;2.00;;
18999;SDS011;9633;50.980;13.850;2022-12-29T03:19:36;6.50;;;2.53;;
18999;SDS011;9633;50.980;13.850;2022-12-29T03:21:19;2.53;;;2.00;;
18999;SDS011;9633;50.980;13.850;2022-12-29T03:23:21;2.53;;;1.80;;
18999;SDS011;9633;50.980;13.850;2022-12-29T03:24:58;3.37;;;2.03;;
18999;SDS011;9633;50.980;13.850;2022-12-29T03:26:35;3.00;;;2.03;;
18999;SDS011;9633;50.980;13.850;2022-12-29T03:28:10;2.37;;;2.00;;
18999;SDS011;9633;50.980;13.850;2022-12-29T03:29:50;3.63;;;2.17;;
18999;SDS011;9633;50.980;13.850;2022-12-29T03:31:26;2.40;;;1.83;;
18999;SDS011;9633;50.980;13.850;2022-12-29T03:33:01;2.83;;;1.80;;
18999;SDS011;9633;50.980;13.850;2022-12-29T03:34:36;4.67;;;1.83;;
18999;SDS011;9633;50.980;13.850;2022-12-29T03:36:12;4.77;;;1.70;;
18999;SDS011;9633;50.980;13.850;2022-12-29T03:37:54;2.73;;;1.90;;
18999;SDS011;9633;50.980;13.850;2022-12-29T03:39:35;4.37;;;2.13;;
18999;SDS011;9633;50.980;13.850;2022-12-29T03:41:09;3.53;;;2.23;;
18999;SDS011;9633;50.980;13.850;2022-12-29T03:42:47;2.70;;;2.10;;
18999;SDS011;9633;50.980;13.850;2022-12-29T03:44:20;2.93;;;2.00;;
18999;SDS011;9633;50.980;13.850;2022-12-29T03:45:54;2.60;;;2.07;;
18999;SDS011;9633;50.980;13.850;2022-12-29T03:47:27;3.87;;;2.07;;
18999;SDS011;9633;50.980;13.850;2022-12-29T03:49:02;2.67;;;2.13;;
18999;SDS011;9633;50.980;13.850;2022-12-29T03:50:35;3.20;;;2.20;;
18999;SDS011;9633;50.980;13.850;2022-12-29T03:52:08;2.23;;;1.97;;
18999;SDS011;9633;50.980;13.850;2022-12-29T03:53:46;2.60;;;2.10;;
18999;SDS011;9633;50.980;13.850;2022-12-29T03:55:19;2.57;;;1.90;;
18999;SDS011;9633;50.980;13.850;2022-12-29T03:56:53;2.37;;;2.00;;
18999;SDS011;9633;50.980;13.850;2022-12-29T03:58:36;4.03;;;2.37;;
18999;SDS011;9633;50.980;13.850;2022-12-29T04:00:16;3.67;;;1.90;;
18999;SDS011;9633;50.980;13.850;2022-12-29T04:01:52;2.10;;;1.90;;
18999;SDS011;9633;50.980;13.850;2022-12-29T04:03:26;3.50;;;2.20;;
18999;SDS011;9633;50.980;13.850;2022-12-29T04:05:01;4.17;;;2.20;;
18999;SDS011;9633;50.980;13.850;2022-12-29T04:06:34;2.30;;;1.87;;
18999;SDS011;9633;50.980;13.850;2022-12-29T04:08:10;3.20;;;2.00;;
18999;SDS011;9633;50.980;13.850;2022-12-29T04:09:44;3.87;;;2.10;;
18999;SDS011;9633;50.980;13.850;2022-12-29T04:11:23;2.33;;;1.80;;
18999;SDS011;9633;50.980;13.850;2022-12-29T04:13:04;2.80;;;2.00;;
18999;SDS011;9633;50.980;13.850;2022-12-29T04:14:37;2.53;;;1.90;;
18999;SDS011;9633;50.980;13.850;2022-12-29T04:16:11;3.27;;;2.10;;
18999;SDS011;9633;50.980;13.850;2022-12-29T04:17:44;3.47;;;2.20;;
18999;SDS011;9633;50.980;13.850;2022-12-29T04:19:17;3.07;;;2.27;;
18999;SDS011;9633;50.980;13.850;2022-12-29T04:20:52;3.83;;;2.07;;
18999;SDS011;9633;50.980;13.850;2022-12-29T04:22:31;3.77;;;2.53;;
18999;SDS011;9633;50.980;13.850;2022-12-29T04:24:05;4.00;;;2.50;;
18999;SDS011;9633;50.980;13.850;2022-12-29T04:25:44;2.90;;;2.10;;
18999;SDS011;9633;50.980;13.850;2022-12-29T04:27:18;3.43;;;2.10;;
18999;SDS011;9633;50.980;13.850;2022-12-29T04:29:06;4.10;;;2.10;;
18999;SDS011;9633;50.980;13.850;2022-12-29T04:30:53;4.30;;;2.27;;
18999;SDS011;9633;50.980;13.850;2022-12-29T04:32:29;2.80;;;2.07;;
18999;SDS011;9633;50.980;13.850;2022-12-29T04:34:02;3.20;;;2.00;;
18999;SDS011;9633;50.980;13.850;2022-12-29T04:35:36;2.93;;;2.03;;
18999;SDS011;9633;50.980;13.850;2022-12-29T04:37:10;2.20;;;2.00;;
18999;SDS011;9633;50.980;13.850;2022-12-29T04:38:43;4.30;;;2.30;;
18999;SDS011;9633;50.980;13.850;2022-12-29T04:40:16;2.60;;;1.77;;
18999;SDS011;9633;50.980;13.850;2022-12-29T04:41:49;3.37;;;2.20;;
18999;SDS011;9633;50.980;13.850;2022-12-29T04:43:24;3.23;;;2.13;;
18999;SDS011;9633;50.980;13.850;2022-12-29T04:45:17;2.60;;;2.03;;
18999;SDS011;9633;50.980;13.850;2022-12-29T04:47:03;3.10;;;1.97;;
18999;SDS011;9633;50.980;13.850;2022-12-29T04:48:55;3.90;;;1.90;;
18999;SDS011;9633;50.980;13.850;2022-12-29T04:51:03;3.00;;;1.90;;
18999;SDS011;9633;50.980;13.850;2022-12-29T04:52:43;3.63;;;2.00;;
18999;SDS011;9633;50.980;13.850;2022-12-29T04:54:17;4.37;;;1.90;;
18999;SDS011;9633;50.980;13.850;2022-12-29T04:56:00;2.10;;;1.90;;
18999;SDS011;9633;50.980;13.850;2022-12-29T04:57:33;3.37;;;1.90;;
18999;SDS011;9633;50.980;13.850;2022-12-29T04:59:06;2.90;;;1.87;;
18999;SDS011;9633;50.980;13.850;2022-12-29T05:00:39;1.97;;;1.77;;
18999;SDS011;9633;50.980;13.850;2022-12-29T05:02:13;2.57;;;1.93;;
18999;SDS011;9633;50.980;13.850;2022-12-29T05:03:45;5.37;;;2.10;;
18999;SDS011;9633;50.980;13.850;2022-12-29T05:05:18;2.93;;;2.10;;
18999;SDS011;9633;50.980;13.850;2022-12-29T05:06:53;2.90;;;1.80;;
18999;SDS011;9633;50.980;13.850;2022-12-29T05:08:28;3.77;;;1.93;;
18999;SDS011;9633;50.980;13.850;2022-12-29T05:10:04;3.13;;;1.70;;
18999;SDS011;9633;50.980;13.850;2022-12-29T05:11:38;3.17;;;1.70;;
18999;SDS011;9633;50.980;13.850;2022-12-29T05:13:13;2.00;;;1.80;;
18999;SDS011;9633;50.980;13.850;2022-12-29T05:14:46;2.93;;;2.00;;
18999;SDS011;9633;50.980;13.850;2022-12-29T05:16:18;3.27;;;2.07;;
18999;SDS011;9633;50.980;13.850;2022-12-29T05:17:52;2.33;;;1.73;;
18999;SDS011;9633;50.980;13.850;2022-12-29T05:19:24;2.97;;;1.60;;
18999;SDS011;9633;50.980;13.850;2022-12-29T05:20:57;2.00;;;1.27;;
18999;SDS011;9633;50.980;13.850;2022-12-29T05:22:32;2.13;;;1.30;;
18999;SDS011;9633;50.980;13.850;2022-12-29T05:24:06;2.30;;;2.10;;
18999;SDS011;9633;50.980;13.850;2022-12-29T05:25:40;1.93;;;1.50;;
18999;SDS011;9633;50.980;13.850;2022-12-29T05:27:25;2.13;;;1.57;;
18999;SDS011;9633;50.980;13.850;2022-12-29T05:29:06;2.57;;;1.80;;
18999;SDS011;9633;50.980;13.850;2022-12-29T05:30:40;2.70;;;1.87;;
18999;SDS011;9633;50.980;13.850;2022-12-29T05:32:13;2.20;;;1.80;;
18999;SDS011;9633;50.980;13.850;2022-12-29T05:33:47;3.10;;;2.00;;
18999;SDS011;9633;50.980;13.850;2022-12-29T05:35:21;4.57;;;1.90;;
18999;SDS011;9633;50.980;13.850;2022-12-29T05:36:55;2.67;;;1.90;;
18999;SDS011;9633;50.980;13.850;2022-12-29T05:38:28;2.87;;;2.00;;
18999;SDS011;9633;50.980;13.850;2022-12-29T05:40:03;2.33;;;1.70;;
18999;SDS011;9633;50.980;13.850;2022-12-29T05:41:37;2.53;;;1.97;;
18999;SDS011;9633;50.980;13.850;2022-12-29T05:43:33;3.70;;;1.90;;
18999;SDS011;9633;50.980;13.850;2022-12-29T05:45:19;2.57;;;2.10;;
18999;SDS011;9633;50.980;13.850;2022-12-29T05:46:59;2.53;;;2.00;;
18999;SDS011;9633;50.980;13.850;2022-12-29T05:48:51;4.30;;;2.10;;
18999;SDS011;9633;50.980;13.850;2022-12-29T05:50:29;4.73;;;1.87;;
18999;SDS011;9633;50.980;13.850;2022-12-29T05:52:12;2.80;;;1.87;;
18999;SDS011;9633;50.980;13.850;2022-12-29T05:53:45;3.37;;;1.87;;
18999;SDS011;9633;50.980;13.850;2022-12-29T05:55:21;3.07;;;1.63;;
18999;SDS011;9633;50.980;13.850;2022-12-29T05:56:56;2.87;;;1.90;;
18999;SDS011;9633;50.980;13.850;2022-12-29T05:58:29;2.40;;;2.20;;
18999;SDS011;9633;50.980;13.850;2022-12-29T06:00:02;3.60;;;2.00;;
18999;SDS011;9633;50.980;13.850;2022-12-29T06:01:44;2.83;;;1.87;;
18999;SDS011;9633;50.980;13.850;2022-12-29T06:03:18;2.37;;;1.57;;
18999;SDS011;9633;50.980;13.850;2022-12-29T06:04:51;3.13;;;1.80;;
18999;SDS011;9633;50.980;13.850;2022-12-29T06:06:24;2.17;;;1.43;;
18999;SDS011;9633;50.980;13.850;2022-12-29T06:07:58;1.93;;;1.53;;
18999;SDS011;9633;50.980;13.850;2022-12-29T06:09:31;3.30;;;1.90;;
18999;SDS011;9633;50.980;13.850;2022-12-29T06:11:07;2.90;;;1.60;;
18999;SDS011;9633;50.980;13.850;2022-12-29T06:12:40;3.70;;;1.90;;
18999;SDS011;9633;50.980;13.850;2022-12-29T06:14:13;3.73;;;1.80;;
18999;SDS011;9633;50.980;13.850;2022-12-29T06:15:47;1.90;;;1.60;;
18999;SDS011;9633;50.980;13.850;2022-12-29T06:17:21;2.37;;;1.80;;
18999;SDS011;9633;50.980;13.850;2022-12-29T06:18:55;3.60;;;1.80;;
18999;SDS011;9633;50.980;13.850;2022-12-29T06:20:28;1.60;;;1.50;;
18999;SDS011;9633;50.980;13.850;2022-12-29T06:22:01;2.00;;;1.60;;
18999;SDS011;9633;50.980;13.850;2022-12-29T06:23:37;2.93;;;1.50;;
18999;SDS011;9633;50.980;13.850;2022-12-29T06:25:11;4.53;;;2.17;;
18999;SDS011;9633;50.980;13.850;2022-12-29T06:26:47;4.43;;;2.90;;
18999;SDS011;9633;50.980;13.850;2022-12-29T06:28:21;3.03;;;2.60;;
18999;SDS011;9633;50.980;13.850;2022-12-29T06:29:54;2.67;;;2.13;;
18999;SDS011;9633;50.980;13.850;2022-12-29T06:31:28;1.80;;;1.70;;
18999;SDS011;9633;50.980;13.850;2022-12-29T06:33:01;2.83;;;1.70;;
18999;SDS011;9633;50.980;13.850;2022-12-29T06:34:34;2.77;;;2.00;;
18999;SDS011;9633;50.980;13.850;2022-12-29T06:36:07;2.03;;;1.60;;
18999;SDS011;9633;50.980;13.850;2022-12-29T06:37:40;1.97;;;1.50;;
18999;SDS011;9633;50.980;13.850;2022-12-29T06:39:14;2.43;;;1.53;;
18999;SDS011;9633;50.980;13.850;2022-12-29T06:40:54;2.73;;;1.43;;
18999;SDS011;9633;50.980;13.850;2022-12-29T06:42:47;1.43;;;1.10;;
18999;SDS011;9633;50.980;13.850;2022-12-29T06:44:47;1.87;;;1.20;;
18999;SDS011;9633;50.980;13.850;2022-12-29T06:46:20;1.60;;;1.00;;
18999;SDS011;9633;50.980;13.850;2022-12-29T06:47:53;1.00;;;0.90;;
18999;SDS011;9633;50.980;13.850;2022-12-29T06:49:26;2.30;;;0.87;;
18999;SDS011;9633;50.980;13.850;2022-12-29T06:51:00;1.30;;;1.00;;
18999;SDS011;9633;50.980;13.850;2022-12-29T06:52:33;1.60;;;0.87;;
18999;SDS011;9633;50.980;13.850;2022-12-29T06:54:06;3.30;;;1.20;;
18999;SDS011;9633;50.980;13.850;2022-12-29T06:55:40;1.73;;;1.00;;
18999;SDS011;9633;50.980;13.850;2022-12-29T06:57:14;2.00;;;1.00;;
18999;SDS011;9633;50.980;13.850;2022-12-29T06:58:48;1.50;;;1.30;;
18999;SDS011;9633;50.980;13.850;2022-12-29T07:00:22;2.07;;;1.40;;
18999;SDS011;9633;50.980;13.850;2022-12-29T07:01:55;2.97;;;1.70;;
18999;SDS011;9633;50.980;13.850;2022-12-29T07:03:28;2.67;;;1.83;;
18999;SDS011;9633;50.980;13.850;2022-12-29T07:05:01;3.03;;;1.87;;
18999;SDS011;9633;50.980;13.850;2022-12-29T07:06:35;2.43;;;2.00;;
18999;SDS011;9633;50.980;13.850;2022-12-29T07:08:08;1.97;;;1.67;;
18999;SDS011;9633;50.980;13.850;2022-12-29T07:09:41;2.33;;;1.80;;
18999;SDS011;9633;50.980;13.850;2022-12-29T07:11:14;3.03;;;1.70;;
18999;SDS011;9633;50.980;13.850;2022-12-29T07:12:47;3.20;;;1.70;;
18999;SDS011;9633;50.980;13.850;2022-12-29T07:14:22;2.83;;;1.80;;
18999;SDS011;9633;50.980;13.850;2022-12-29T07:15:55;3.07;;;1.80;;
18999;SDS011;9633;50.980;13.850;2022-12-29T07:17:28;2.93;;;1.90;;
18999;SDS011;9633;50.980;13.850;2022-12-29T07:19:02;2.90;;;1.80;;
18999;SDS011;9633;50.980;13.850;2022-12-29T07:20:35;2.93;;;1.80;;
18999;SDS011;9633;50.980;13.850;2022-12-29T07:22:07;3.77;;;1.77;;
18999;SDS011;9633;50.980;13.850;2022-12-29T07:23:41;3.27;;;2.00;;
18999;SDS011;9633;50.980;13.850;2022-12-29T07:25:14;3.80;;;1.97;;
18999;SDS011;9633;50.980;13.850;2022-12-29T07:26:48;2.97;;;2.10;;
18999;SDS011;9633;50.980;13.850;2022-12-29T07:28:21;2.20;;;1.73;;
18999;SDS011;9633;50.980;13.850;2022-12-29T07:29:55;2.37;;;1.90;;
18999;SDS011;9633;50.980;13.850;2022-12-29T07:31:28;3.00;;;1.90;;
18999;SDS011;9633;50.980;13.850;2022-12-29T07:33:02;3.20;;;1.63;;
18999;SDS011;9633;50.980;13.850;2022-12-29T07:34:35;3.07;;;2.13;;
18999;SDS011;9633;50.980;13.850;2022-12-29T07:36:08;3.07;;;2.27;;
18999;SDS011;9633;50.980;13.850;2022-12-29T07:37:42;3.30;;;1.93;;
18999;SDS011;9633;50.980;13.850;2022-12-29T07:39:15;2.83;;;2.13;;
18999;SDS011;9633;50.980;13.850;2022-12-29T07:40:48;2.83;;;2.17;;
18999;SDS011;9633;50.980;13.850;2022-12-29T07:42:21;3.57;;;2.10;;
18999;SDS011;9633;50.980;13.850;2022-12-29T07:43:56;3.07;;;2.10;;
18999;SDS011;9633;50.980;13.850;2022-12-29T07:45:49;2.90;;;2.13;;
18999;SDS011;9633;50.980;13.850;2022-12-29T07:47:26;3.20;;;2.30;;
18999;SDS011;9633;50.980;13.850;2022-12-29T07:48:59;2.80;;;2.17;;
18999;SDS011;9633;50.980;13.850;2022-12-29T07:50:33;3.53;;;2.13;;
18999;SDS011;9633;50.980;13.850;2022-12-29T07:52:06;3.43;;;2.50;;
18999;SDS011;9633;50.980;13.850;2022-12-29T07:53:39;2.37;;;2.10;;
18999;SDS011;9633;50.980;13.850;2022-12-29T07:55:12;4.53;;;2.17;;
18999;SDS011;9633;50.980;13.850;2022-12-29T07:56:46;4.57;;;2.50;;
18999;SDS011;9633;50.980;13.850;2022-12-29T07:58:19;2.50;;;2.13;;
18999;SDS011;9633;50.980;13.850;2022-12-29T07:59:52;2.87;;;2.10;;
18999;SDS011;9633;50.980;13.850;2022-12-29T08:01:26;3.00;;;2.20;;
18999;SDS011;9633;50.980;13.850;2022-12-29T08:03:00;4.67;;;2.47;;
18999;SDS011;9633;50.980;13.850;2022-12-29T08:04:33;3.73;;;2.47;;
18999;SDS011;9633;50.980;13.850;2022-12-29T08:06:08;3.33;;;2.07;;
18999;SDS011;9633;50.980;13.850;2022-12-29T08:07:42;3.00;;;2.03;;
18999;SDS011;9633;50.980;13.850;2022-12-29T08:09:15;2.57;;;1.93;;
18999;SDS011;9633;50.980;13.850;2022-12-29T08:10:53;2.43;;;2.07;;
18999;SDS011;9633;50.980;13.850;2022-12-29T08:12:26;3.67;;;2.03;;
18999;SDS011;9633;50.980;13.850;2022-12-29T08:13:59;2.53;;;2.33;;
18999;SDS011;9633;50.980;13.850;2022-12-29T08:15:32;2.73;;;2.10;;
18999;SDS011;9633;50.980;13.850;2022-12-29T08:17:07;2.73;;;1.90;;
18999;SDS011;9633;50.980;13.850;2022-12-29T08:18:41;2.47;;;1.90;;
18999;SDS011;9633;50.980;13.850;2022-12-29T08:20:14;2.80;;;2.00;;
18999;SDS011;9633;50.980;13.850;2022-12-29T08:21:48;3.23;;;1.80;;
18999;SDS011;9633;50.980;13.850;2022-12-29T08:23:21;2.43;;;1.80;;
18999;SDS011;9633;50.980;13.850;2022-12-29T08:24:54;3.03;;;1.80;;
18999;SDS011;9633;50.980;13.850;2022-12-29T08:26:27;2.43;;;2.00;;
18999;SDS011;9633;50.980;13.850;2022-12-29T08:28:00;2.00;;;1.70;;
18999;SDS011;9633;50.980;13.850;2022-12-29T08:29:34;4.40;;;2.00;;
18999;SDS011;9633;50.980;13.850;2022-12-29T08:31:07;3.10;;;2.20;;
18999;SDS011;9633;50.980;13.850;2022-12-29T08:32:44;4.03;;;2.10;;
18999;SDS011;9633;50.980;13.850;2022-12-29T08:34:18;2.90;;;1.83;;
18999;SDS011;9633;50.980;13.850;2022-12-29T08:35:51;3.30;;;2.03;;
18999;SDS011;9633;50.980;13.850;2022-12-29T08:37:24;3.90;;;2.30;;
18999;SDS011;9633;50.980;13.850;2022-12-29T08:39:01;4.57;;;2.10;;
18999;SDS011;9633;50.980;13.850;2022-12-29T08:40:34;3.73;;;2.03;;
18999;SDS011;9633;50.980;13.850;2022-12-29T08:42:07;4.40;;;2.03;;
18999;SDS011;9633;50.980;13.850;2022-12-29T08:43:41;2.87;;;2.10;;
18999;SDS011;9633;50.980;13.850;2022-12-29T08:45:17;2.40;;;1.83;;
18999;SDS011;9633;50.980;13.850;2022-12-29T08:46:50;5.07;;;2.20;;
18999;SDS011;9633;50.980;13.850;2022-12-29T08:48:25;4.67;;;2.17;;
18999;SDS011;9633;50.980;13.850;2022-12-29T08:49:58;3.00;;;2.10;;
18999;SDS011;9633;50.980;13.850;2022-12-29T08:51:32;3.47;;;2.40;;
18999;SDS011;9633;50.980;13.850;2022-12-29T08:53:05;2.80;;;2.03;;
18999;SDS011;9633;50.980;13.850;2022-12-29T08:54:38;2.37;;;1.80;;
18999;SDS011;9633;50.980;13.850;2022-12-29T08:56:11;5.97;;;2.50;;
18999;SDS011;9633;50.980;13.850;2022-12-29T08:57:51;4.10;;;2.10;;
18999;SDS011;9633;50.980;13.850;2022-12-29T08:59:25;3.23;;;1.90;;
18999;SDS011;9633;50.980;13.850;2022-12-29T09:00:58;4.03;;;2.50;;
18999;SDS011;9633;50.980;13.850;2022-12-29T09:02:32;2.73;;;2.23;;
18999;SDS011;9633;50.980;13.850;2022-12-29T09:04:06;4.67;;;2.00;;
18999;SDS011;9633;50.980;13.850;2022-12-29T09:05:47;3.57;;;2.60;;
18999;SDS011;9633;50.980;13.850;2022-12-29T09:07:21;2.53;;;2.00;;
18999;SDS011;9633;50.980;13.850;2022-12-29T09:08:54;2.20;;;2.00;;
18999;SDS011;9633;50.980;13.850;2022-12-29T09:10:27;3.40;;;2.20;;
18999;SDS011;9633;50.980;13.850;2022-12-29T09:12:01;4.27;;;2.27;;
18999;SDS011;9633;50.980;13.850;2022-12-29T09:13:34;4.03;;;2.10;;
18999;SDS011;9633;50.980;13.850;2022-12-29T09:15:08;3.40;;;1.80;;
18999;SDS011;9633;50.980;13.850;2022-12-29T09:16:41;2.10;;;1.90;;
18999;SDS011;9633;50.980;13.850;2022-12-29T09:18:32;3.30;;;2.30;;
18999;SDS011;9633;50.980;13.850;2022-12-29T09:20:07;3.97;;;2.43;;
18999;SDS011;9633;50.980;13.850;2022-12-29T09:21:41;2.87;;;2.10;;
18999;SDS011;9633;50.980;13.850;2022-12-29T09:23:14;3.53;;;2.10;;
18999;SDS011;9633;50.980;13.850;2022-12-29T09:24:47;2.00;;;1.60;;
18999;SDS011;9633;50.980;13.850;2022-12-29T09:26:21;2.13;;;1.67;;
18999;SDS011;9633;50.980;13.850;2022-12-29T09:27:54;2.67;;;1.60;;
18999;SDS011;9633;50.980;13.850;2022-12-29T09:29:27;2.47;;;1.60;;
18999;SDS011;9633;50.980;13.850;2022-12-29T09:31:00;3.60;;;1.40;;
18999;SDS011;9633;50.980;13.850;2022-12-29T09:32:34;1.57;;;1.30;;
18999;SDS011;9633;50.980;13.850;2022-12-29T09:34:15;2.97;;;1.27;;
18999;SDS011;9633;50.980;13.850;2022-12-29T09:35:52;2.30;;;1.20;;
18999;SDS011;9633;50.980;13.850;2022-12-29T09:37:26;1.30;;;1.20;;
18999;SDS011;9633;50.980;13.850;2022-12-29T09:38:59;1.80;;;1.20;;
18999;SDS011;9633;50.980;13.850;2022-12-29T09:40:32;1.63;;;1.10;;
18999;SDS011;9633;50.980;13.850;2022-12-29T09:42:07;1.93;;;1.00;;
18999;SDS011;9633;50.980;13.850;2022-12-29T09:45:40;1.60;;;1.47;;
18999;SDS011;9633;50.980;13.850;2022-12-29T09:47:17;2.70;;;1.20;;